Time;durP1;ratioP1;P1;durP2;ratioP2;P2;SDS_P1;SDS_P2;PMS_P1;PMS_P2;Temp;Humidity;BMP_temperature;BMP_pressure;BME280_temperature;BME280_humidity;BME280_pressure;Samples;Min_cycle;Max_cycle;Signal;HPM_P1;HPM_P2
2021/06/06 00:00:45;;;;;;;29.13;18.77;;;;;;;13.18;100.00;101869.91;5077540;28;20049;-58
2021/06/06 00:03:16;;;;;;;30.52;17.88;;;;;;;13.28;100.00;101864.44;5076249;28;20061;-58
2021/06/06 00:05:48;;;;;;;28.33;18.58;;;;;;;13.33;100.00;101867.50;5073464;28;20048;-58
2021/06/06 00:08:17;;;;;;;31.23;18.17;;;;;;;13.31;100.00;101874.03;5070661;28;20467;-57
2021/06/06 00:10:46;;;;;;;35.05;18.55;;;;;;;13.22;100.00;101876.63;5073561;28;20040;-59
2021/06/06 00:13:14;;;;;;;29.10;18.92;;;;;;;13.29;100.00;101870.66;5072526;28;20379;-58
2021/06/06 00:15:44;;;;;;;37.33;19.55;;;;;;;13.12;100.00;101875.88;5075137;28;20060;-58
2021/06/06 00:18:12;;;;;;;32.30;20.58;;;;;;;13.17;100.00;101868.22;5070552;28;20044;-60
2021/06/06 00:20:39;;;;;;;32.92;19.38;;;;;;;13.14;100.00;101865.84;5076303;28;20043;-57
2021/06/06 00:23:07;;;;;;;35.55;21.08;;;;;;;13.08;100.00;101867.31;5071424;28;20451;-58
2021/06/06 00:25:35;;;;;;;34.83;21.55;;;;;;;13.10;100.00;101867.16;5071692;28;20337;-58
2021/06/06 00:28:03;;;;;;;33.17;20.17;;;;;;;13.13;100.00;101866.84;5071918;28;20040;-58
2021/06/06 00:30:30;;;;;;;30.85;19.42;;;;;;;13.08;100.00;101864.63;5076394;28;20040;-58
2021/06/06 00:32:59;;;;;;;34.10;21.80;;;;;;;12.99;100.00;101857.50;5077166;28;20039;-58
2021/06/06 00:35:27;;;;;;;38.85;21.90;;;;;;;12.94;100.00;101854.41;5072521;28;20044;-58
2021/06/06 00:37:54;;;;;;;39.17;20.65;;;;;;;12.98;100.00;101855.81;5069844;28;20052;-58
2021/06/06 00:40:24;;;;;;;35.80;22.33;;;;;;;12.92;100.00;101859.09;5071306;28;20043;-58
2021/06/06 00:42:52;;;;;;;43.20;24.20;;;;;;;12.82;100.00;101863.72;5074873;28;20037;-58
2021/06/06 00:45:23;;;;;;;38.97;24.83;;;;;;;12.85;100.00;101858.03;5073096;28;20761;-58
2021/06/06 00:47:51;;;;;;;43.08;24.40;;;;;;;12.83;100.00;101850.16;5071980;28;20041;-58
2021/06/06 00:50:23;;;;;;;41.97;25.08;;;;;;;12.73;100.00;101852.91;5075116;28;20361;-57
2021/06/06 00:52:52;;;;;;;42.17;23.33;;;;;;;12.72;100.00;101851.22;5076254;28;20045;-58
2021/06/06 00:55:20;;;;;;;49.55;26.50;;;;;;;12.64;100.00;101845.75;5061974;28;20040;-58
2021/06/06 00:57:49;;;;;;;43.58;26.30;;;;;;;12.69;100.00;101846.16;5061073;28;20045;-57
2021/06/06 01:00:22;;;;;;;45.95;25.85;;;;;;;12.60;100.00;101840.88;5057614;28;20052;-58
2021/06/06 01:02:49;;;;;;;47.90;27.60;;;;;;;12.61;100.00;101848.75;5060919;28;20044;-58
2021/06/06 01:05:26;;;;;;;49.80;28.05;;;;;;;12.55;100.00;101842.16;5059894;28;20059;-58
2021/06/06 01:07:54;;;;;;;48.10;26.60;;;;;;;12.44;100.00;101841.53;5056525;28;20047;-58
2021/06/06 01:10:23;;;;;;;48.13;25.75;;;;;;;12.37;100.00;101850.16;5059760;28;20440;-58
2021/06/06 01:12:55;;;;;;;54.63;31.80;;;;;;;12.38;100.00;101841.13;5060527;28;20036;-58
2021/06/06 01:15:25;;;;;;;56.55;30.58;;;;;;;12.35;100.00;101843.28;5057979;28;20358;-58
2021/06/06 01:17:57;;;;;;;56.40;31.05;;;;;;;12.12;100.00;101834.78;5061166;28;20044;-58
2021/06/06 01:20:35;;;;;;;67.00;33.05;;;;;;;12.15;100.00;101840.69;5058501;28;20131;-58
2021/06/06 01:23:07;;;;;;;72.00;33.10;;;;;;;12.15;100.00;101845.19;5059514;28;20045;-61
2021/06/06 01:25:39;;;;;;;67.50;34.55;;;;;;;12.11;100.00;101849.19;5057538;28;20090;-58
2021/06/06 01:28:12;;;;;;;60.65;30.90;;;;;;;11.98;100.00;101847.69;5056853;28;20425;-58
2021/06/06 01:30:43;;;;;;;65.70;33.65;;;;;;;11.98;100.00;101845.00;5061141;28;20049;-59
2021/06/06 01:33:14;;;;;;;61.50;33.20;;;;;;;12.01;100.00;101850.06;5060031;28;20071;-58
2021/06/06 01:35:46;;;;;;;66.97;34.35;;;;;;;12.05;100.00;101843.44;5061086;28;20087;-58
2021/06/06 01:38:17;;;;;;;70.75;35.28;;;;;;;11.99;100.00;101841.34;5057555;28;20464;-58
2021/06/06 01:40:47;;;;;;;65.63;33.75;;;;;;;11.95;100.00;101836.41;5056677;28;20336;-58
2021/06/06 01:43:17;;;;;;;69.45;33.83;;;;;;;11.86;100.00;101836.31;5058557;28;20044;-58
2021/06/06 01:45:48;;;;;;;77.75;36.97;;;;;;;11.85;100.00;101833.75;5060024;28;20121;-58
2021/06/06 01:48:16;;;;;;;76.47;36.75;;;;;;;11.79;100.00;101837.00;5060095;28;20048;-59
2021/06/06 01:50:50;;;;;;;76.18;36.92;;;;;;;11.80;100.00;101841.38;5058094;28;20048;-58
2021/06/06 01:53:18;;;;;;;88.70;39.53;;;;;;;11.77;100.00;101836.34;5056917;28;20036;-58
2021/06/06 01:55:49;;;;;;;89.60;40.15;;;;;;;11.74;100.00;101839.28;5061635;28;20130;-58
2021/06/06 01:58:18;;;;;;;84.63;40.10;;;;;;;11.68;100.00;101838.88;5053418;28;20072;-58
2021/06/06 02:00:49;;;;;;;78.68;37.55;;;;;;;11.61;100.00;101827.09;5060624;28;20048;-58
2021/06/06 02:03:17;;;;;;;86.50;38.92;;;;;;;11.54;100.00;101825.97;5060791;28;20037;-62
2021/06/06 02:05:45;;;;;;;78.80;37.92;;;;;;;11.46;100.00;101825.84;5058783;28;20049;-58
2021/06/06 02:08:16;;;;;;;86.78;39.15;;;;;;;11.40;100.00;101831.75;5055987;28;20400;-58
2021/06/06 02:10:49;;;;;;;83.55;38.70;;;;;;;11.34;100.00;101833.16;5061779;28;20063;-58
2021/06/06 02:13:19;;;;;;;84.38;38.65;;;;;;;11.29;100.00;101833.63;5059511;28;20036;-58
2021/06/06 02:15:51;;;;;;;89.22;42.00;;;;;;;11.20;100.00;101834.47;5059001;28;20041;-57
2021/06/06 02:18:19;;;;;;;84.72;38.55;;;;;;;11.14;100.00;101824.34;5056507;28;20459;-58
2021/06/06 02:20:48;;;;;;;89.65;40.65;;;;;;;11.12;100.00;101829.00;5057840;28;20040;-58
2021/06/06 02:23:21;;;;;;;97.15;42.53;;;;;;;11.15;100.00;101815.34;5056427;28;20041;-58
2021/06/06 02:25:52;;;;;;;88.10;39.53;;;;;;;11.15;100.00;101815.34;5057506;28;20056;-58
2021/06/06 02:28:22;;;;;;;72.40;34.88;;;;;;;11.00;100.00;101818.44;5054472;28;20045;-58
2021/06/06 02:30:52;;;;;;;90.05;40.25;;;;;;;10.97;100.00;101810.72;5057421;28;20346;-59
2021/06/06 02:33:26;;;;;;;86.03;38.22;;;;;;;10.97;100.00;101813.41;5060971;28;20037;-58
2021/06/06 02:35:56;;;;;;;83.72;36.20;;;;;;;11.01;100.00;101808.59;5057649;28;20040;-58
2021/06/06 02:38:27;;;;;;;101.38;41.70;;;;;;;10.92;100.00;101810.28;5057920;28;20044;-58
2021/06/06 02:41:01;;;;;;;80.97;38.15;;;;;;;10.78;100.00;101816.06;5060388;28;20048;-59
2021/06/06 02:43:32;;;;;;;81.50;38.33;;;;;;;10.85;100.00;101825.19;5059289;28;20097;-59
2021/06/06 02:46:02;;;;;;;80.70;37.38;;;;;;;10.82;100.00;101826.31;5058056;28;20332;-59
2021/06/06 02:48:34;;;;;;;80.50;37.17;;;;;;;10.88;100.00;101830.25;5052970;28;20045;-58
2021/06/06 02:51:04;;;;;;;90.85;40.53;;;;;;;10.83;100.00;101821.81;5060137;28;20044;-58
2021/06/06 02:53:34;;;;;;;88.93;37.80;;;;;;;10.71;100.00;101822.94;5056124;28;20043;-58
2021/06/06 02:56:08;;;;;;;88.55;40.08;;;;;;;10.56;100.00;101818.03;5059833;28;20101;-59
2021/06/06 02:58:38;;;;;;;86.30;38.58;;;;;;;10.53;100.00;101820.94;5057414;28;20056;-58
2021/06/06 03:01:09;;;;;;;119.40;47.03;;;;;;;10.57;100.00;101829.53;5057734;28;20044;-59
2021/06/06 03:03:38;;;;;;;133.65;48.30;;;;;;;10.45;100.00;101828.81;5059823;28;20036;-59
2021/06/06 03:06:12;;;;;;;114.90;45.85;;;;;;;10.46;100.00;101819.81;5054134;28;20436;-58
2021/06/06 03:08:39;;;;;;;120.75;45.30;;;;;;;10.29;100.00;101822.16;5057558;28;20107;-58
2021/06/06 03:11:10;;;;;;;139.20;47.88;;;;;;;10.20;100.00;101820.28;5060705;28;20220;-60
2021/06/06 03:13:40;;;;;;;97.38;42.05;;;;;;;10.20;100.00;101820.28;5053929;28;20451;-58
2021/06/06 03:16:07;;;;;;;114.10;46.55;;;;;;;10.32;100.00;101835.22;5056072;28;20253;-58
2021/06/06 03:18:37;;;;;;;79.63;37.95;;;;;;;10.48;100.00;101823.19;5055840;28;20072;-58
2021/06/06 03:21:10;;;;;;;69.18;33.38;;;;;;;10.62;100.00;101820.13;5055938;28;20041;-60
2021/06/06 03:23:38;;;;;;;71.68;34.85;;;;;;;10.59;100.00;101832.91;5059548;28;20036;-63
2021/06/06 03:26:09;;;;;;;73.13;35.05;;;;;;;10.65;100.00;101840.38;5057418;28;20537;-59
2021/06/06 03:28:40;;;;;;;79.50;36.20;;;;;;;10.59;100.00;101839.09;5058275;28;20263;-60
2021/06/06 03:31:10;;;;;;;83.70;38.13;;;;;;;10.50;100.00;101837.25;5061930;28;20067;-59
2021/06/06 03:33:46;;;;;;;104.13;41.25;;;;;;;10.30;100.00;101831.81;5058743;28;20040;-59
2021/06/06 03:36:16;;;;;;;115.82;45.10;;;;;;;10.19;100.00;101836.44;5055353;28;20052;-59
2021/06/06 03:38:44;;;;;;;93.28;40.33;;;;;;;10.21;100.00;101843.34;5056606;28;20044;-62
2021/06/06 03:41:13;;;;;;;79.72;38.17;;;;;;;10.27;100.00;101837.44;5054205;28;20044;-64
2021/06/06 03:43:40;;;;;;;84.75;39.35;;;;;;;10.32;100.00;101835.22;5060227;28;20036;-58
2021/06/06 03:46:07;;;;;;;72.38;35.65;;;;;;;10.37;100.00;101834.00;5054665;28;20041;-58
2021/06/06 03:48:35;;;;;;;89.75;39.28;;;;;;;10.50;100.00;101840.78;5053469;28;20041;-59
2021/06/06 03:51:03;;;;;;;76.47;36.70;;;;;;;10.49;100.00;101836.41;5056412;28;20053;-58
2021/06/06 03:53:31;;;;;;;99.22;39.53;;;;;;;10.43;100.00;101833.44;5053854;28;20118;-59
2021/06/06 03:55:59;;;;;;;86.93;37.67;;;;;;;10.34;100.00;101835.13;5055955;28;20416;-59
2021/06/06 03:58:27;;;;;;;81.80;37.08;;;;;;;10.31;100.00;101830.03;5053210;28;20040;-59
2021/06/06 04:00:56;;;;;;;83.00;36.60;;;;;;;10.16;100.00;101834.88;5059103;28;20079;-58
2021/06/06 04:03:23;;;;;;;80.82;34.83;;;;;;;10.17;100.00;101826.72;5056288;28;20049;-58
2021/06/06 04:05:52;;;;;;;73.65;33.65;;;;;;;10.38;100.00;101841.03;5054773;28;20037;-61
2021/06/06 04:08:21;;;;;;;78.60;36.42;;;;;;;10.51;100.00;101830.94;5053282;28;20105;-59
2021/06/06 04:10:49;;;;;;;75.80;36.70;;;;;;;10.56;100.00;101828.72;5054866;28;20095;-58
2021/06/06 04:13:17;;;;;;;128.15;42.80;;;;;;;10.40;100.00;101825.72;5055114;28;20044;-59
2021/06/06 04:15:46;;;;;;;130.10;46.05;;;;;;;10.33;100.00;101826.25;5058086;28;20045;-58
2021/06/06 04:18:17;;;;;;;103.32;39.03;;;;;;;10.24;100.00;101826.22;5054917;28;20366;-58
2021/06/06 04:20:45;;;;;;;79.95;36.95;;;;;;;10.23;100.00;101830.69;5057891;28;21302;-59
2021/06/06 04:23:13;;;;;;;89.85;38.13;;;;;;;10.24;100.00;101824.38;5054469;28;20070;-58
2021/06/06 04:25:41;;;;;;;104.25;39.53;;;;;;;10.19;100.00;101823.94;5053576;28;20041;-59
2021/06/06 04:28:09;;;;;;;153.82;48.80;;;;;;;10.20;100.00;101819.44;5055665;28;20064;-59
2021/06/06 04:30:37;;;;;;;130.07;48.08;;;;;;;10.07;100.00;101819.69;5060969;28;20102;-58
2021/06/06 04:33:08;;;;;;;83.40;36.55;;;;;;;10.27;100.00;101818.75;5059884;28;20036;-59
2021/06/06 04:35:36;;;;;;;101.13;40.42;;;;;;;10.22;100.00;101821.00;5059705;28;20045;-68
2021/06/06 04:38:03;;;;;;;80.57;35.00;;;;;;;10.30;100.00;101817.66;5058000;28;20045;-68
2021/06/06 04:40:31;;;;;;;75.90;33.17;;;;;;;10.46;100.00;101819.81;5059181;28;20052;-67
2021/06/06 04:43:00;;;;;;;90.80;37.72;;;;;;;10.23;100.00;101814.66;5058855;28;20095;-68
2021/06/06 04:45:28;;;;;;;105.28;40.17;;;;;;;10.22;100.00;101820.16;5059975;28;20041;-67
2021/06/06 04:48:11;;;;;;;109.20;40.35;;;;;;;10.48;100.00;101817.88;5059760;28;20041;-68
2021/06/06 04:50:39;;;;;;;92.80;38.20;;;;;;;10.59;100.00;101815.06;5061916;28;20045;-67
2021/06/06 04:53:07;;;;;;;107.00;40.78;;;;;;;10.65;100.00;101809.16;5059296;28;20053;-68
2021/06/06 04:55:34;;;;;;;113.80;41.95;;;;;;;10.64;100.00;101811.97;5055131;28;20044;-67
2021/06/06 04:58:02;;;;;;;124.18;41.85;;;;;;;10.60;100.00;101822.06;5058627;28;20067;-67
2021/06/06 05:00:35;;;;;;;114.47;41.63;;;;;;;10.63;100.00;101819.16;5057774;28;20538;-67
2021/06/06 05:03:03;;;;;;;107.57;42.90;;;;;;;10.79;100.00;101812.41;5059855;28;20071;-67
2021/06/06 05:05:31;;;;;;;110.40;41.40;;;;;;;10.87;100.00;101817.88;5058704;28;20332;-68
2021/06/06 05:08:00;;;;;;;115.47;44.38;;;;;;;11.00;100.00;101818.44;5057428;28;20070;-68
2021/06/06 05:10:31;;;;;;;121.47;44.63;;;;;;;11.16;100.00;101814.38;5054625;28;20425;-68
2021/06/06 05:12:58;;;;;;;120.72;45.45;;;;;;;11.16;100.00;101811.69;5060135;28;20098;-67
2021/06/06 05:15:26;;;;;;;124.10;45.00;;;;;;;11.30;100.00;101816.59;5061870;28;20371;-67
2021/06/06 05:17:54;;;;;;;128.13;47.90;;;;;;;11.35;100.00;101816.16;5053712;28;20325;-67
2021/06/06 05:20:24;;;;;;;129.90;46.05;;;;;;;11.25;100.00;101820.69;5057744;28;20106;-68
2021/06/06 05:22:53;;;;;;;132.38;48.45;;;;;;;11.43;100.00;101812.78;5056608;28;20491;-67
2021/06/06 05:25:21;;;;;;;121.53;46.88;;;;;;;11.63;100.00;101816.22;5057087;28;20044;-67
2021/06/06 05:27:49;;;;;;;117.95;45.25;;;;;;;11.76;100.00;101813.22;5056111;28;20041;-67
2021/06/06 05:30:22;;;;;;;113.57;45.15;;;;;;;11.81;100.00;101819.00;5056759;28;20178;-68
2021/06/06 05:32:49;;;;;;;92.55;39.78;;;;;;;12.10;100.00;101821.56;5061260;28;20090;-67
2021/06/06 05:35:17;;;;;;;86.32;39.08;;;;;;;12.32;100.00;101824.81;5074840;28;20033;-67
2021/06/06 05:37:45;;;;;;;97.22;40.45;;;;;;;12.51;100.00;101813.97;5055297;28;20037;-67
2021/06/06 05:40:15;;;;;;;87.15;38.40;;;;;;;12.79;100.00;101815.78;5058442;28;20048;-67
2021/06/06 05:42:44;;;;;;;67.18;35.38;;;;;;;13.23;100.00;101818.47;5058471;28;20045;-67
2021/06/06 05:45:14;;;;;;;57.70;32.20;;;;;;;13.96;100.00;101819.94;5057264;28;20424;-67
2021/06/06 05:47:42;;;;;;;49.42;27.08;;;;;;;14.95;100.00;101818.34;5052914;28;20124;-67
2021/06/06 05:50:11;;;;;;;42.78;24.77;;;;;;;14.99;100.00;101816.19;5055675;28;20049;-67
2021/06/06 05:52:39;;;;;;;43.50;26.23;;;;;;;14.92;100.00;101820.56;5058342;28;20091;-68
2021/06/06 05:55:08;;;;;;;47.85;27.60;;;;;;;14.92;100.00;101820.56;5060436;28;20045;-67
2021/06/06 05:57:37;;;;;;;43.03;25.33;;;;;;;14.37;100.00;101825.44;5055470;28;20091;-68
2021/06/06 06:00:06;;;;;;;44.25;27.95;;;;;;;14.26;100.00;101820.38;5063163;28;20041;-67
2021/06/06 06:02:33;;;;;;;48.90;25.52;;;;;;;15.30;100.00;101820.88;5060751;28;20080;-67
2021/06/06 06:05:01;;;;;;;42.60;24.77;;;;;;;15.99;100.00;101823.94;5057597;28;20110;-67
2021/06/06 06:07:28;;;;;;;37.83;24.00;;;;;;;14.80;100.00;101820.06;5055265;28;20125;-67
2021/06/06 06:09:56;;;;;;;41.78;24.08;;;;;;;14.88;100.00;101830.78;5057780;28;20448;-67
2021/06/06 06:12:23;;;;;;;36.67;22.42;;;;;;;15.11;100.00;101833.66;5056717;28;20067;-67
2021/06/06 06:14:52;;;;;;;38.90;21.83;;;;;;;15.90;100.00;101832.22;5058897;28;20065;-68
2021/06/06 06:17:19;;;;;;;34.63;19.92;;;;;;;16.44;100.00;101828.75;5055501;28;20052;-68
2021/06/06 06:19:47;;;;;;;28.00;17.83;;;;;;;16.69;100.00;101829.44;5057575;28;20102;-68
2021/06/06 06:22:15;;;;;;;26.70;16.80;;;;;;;17.85;100.00;101827.38;5062851;28;20387;-68
2021/06/06 06:24:42;;;;;;;21.77;14.73;;;;;;;19.12;100.00;101825.28;5058337;28;20057;-68
2021/06/06 06:27:10;;;;;;;14.05;10.57;;;;;;;19.36;100.00;101831.31;5055221;28;20407;-68
2021/06/06 06:29:37;;;;;;;15.88;11.00;;;;;;;19.41;100.00;101832.41;5062068;28;20052;-68
2021/06/06 06:32:06;;;;;;;15.30;10.40;;;;;;;19.74;100.00;101825.53;5061389;28;20044;-68
2021/06/06 06:34:34;;;;;;;14.63;10.05;;;;;;;18.71;100.00;101832.19;5057180;28;20044;-68
2021/06/06 06:37:02;;;;;;;9.75;6.95;;;;;;;16.97;100.00;101824.38;5052663;28;20098;-68
2021/06/06 06:39:29;;;;;;;12.40;7.30;;;;;;;18.35;100.00;101832.22;5061899;28;20041;-68
2021/06/06 06:41:57;;;;;;;9.55;6.63;;;;;;;19.66;100.00;101829.25;5058899;28;20036;-68
2021/06/06 06:44:24;;;;;;;12.02;7.60;;;;;;;19.39;100.00;101823.66;5055846;28;20318;-69
2021/06/06 06:46:52;;;;;;;6.90;4.85;;;;;;;20.39;100.00;101825.22;5055071;28;20052;-69
2021/06/06 06:49:22;;;;;;;7.05;5.40;;;;;;;20.51;100.00;101820.03;5060604;28;20044;-68
2021/06/06 06:51:49;;;;;;;7.22;5.82;;;;;;;20.73;100.00;101826.97;5052349;28;20478;-68
2021/06/06 06:54:17;;;;;;;12.15;7.43;;;;;;;20.37;100.00;101832.72;5058598;28;20054;-68
2021/06/06 06:56:44;;;;;;;10.77;7.53;;;;;;;20.91;100.00;101825.53;5055155;28;20048;-69
2021/06/06 06:59:12;;;;;;;11.40;8.45;;;;;;;20.33;100.00;101831.44;5057339;28;20285;-69
2021/06/06 07:01:39;;;;;;;14.23;9.27;;;;;;;20.60;100.00;101833.19;5059504;28;20332;-69
2021/06/06 07:04:07;;;;;;;15.48;10.93;;;;;;;21.10;100.00;101837.47;5057827;28;20036;-68
2021/06/06 07:06:36;;;;;;;14.07;9.85;;;;;;;20.54;100.00;101844.88;5055824;28;20052;-68
2021/06/06 07:09:04;;;;;;;21.45;9.82;;;;;;;21.29;100.00;101842.06;5056858;28;20033;-68
2021/06/06 07:11:32;;;;;;;15.02;9.98;;;;;;;21.36;100.00;101835.78;5058857;28;20126;-68
2021/06/06 07:13:59;;;;;;;15.65;10.93;;;;;;;21.97;100.00;101842.78;5060028;28;20338;-68
2021/06/06 07:16:27;;;;;;;18.35;10.55;;;;;;;19.84;100.00;101839.56;5059224;28;20332;-68
2021/06/06 07:18:54;;;;;;;12.95;10.18;;;;;;;18.45;100.00;101851.66;5055370;28;20044;-68
2021/06/06 07:21:23;;;;;;;13.32;10.50;;;;;;;19.04;100.00;101852.53;5055253;28;20049;-67
2021/06/06 07:23:52;;;;;;;18.05;11.77;;;;;;;20.50;100.00;101849.03;5055289;28;20044;-68
2021/06/06 07:26:23;;;;;;;14.02;9.80;;;;;;;21.68;100.00;101855.84;5055777;28;20387;-68
2021/06/06 07:28:52;;;;;;;15.32;10.60;;;;;;;21.45;100.00;101848.94;5056428;28;20040;-68
2021/06/06 07:31:19;;;;;;;12.43;8.90;;;;;;;21.46;100.00;101847.03;5056989;28;20094;-67
2021/06/06 07:33:47;;;;;;;14.77;9.25;;;;;;;22.01;100.00;101849.47;5056403;28;20048;-67
2021/06/06 07:36:17;;;;;;;15.52;9.30;;;;;;;19.52;100.00;101850.00;5057497;28;20388;-68
2021/06/06 07:38:47;;;;;;;13.07;9.02;;;;;;;18.88;100.00;101853.59;5054730;28;20045;-68
2021/06/06 07:41:16;;;;;;;14.65;10.00;;;;;;;19.19;100.00;101847.84;5054847;28;20067;-69
2021/06/06 07:43:44;;;;;;;15.57;10.30;;;;;;;19.07;100.00;101849.41;5060540;28;20048;-68
2021/06/06 07:46:13;;;;;;;16.55;10.15;;;;;;;17.55;100.00;101851.69;5061106;28;20048;-68
2021/06/06 07:48:40;;;;;;;14.02;9.80;;;;;;;17.63;100.00;101849.94;5056455;28;20071;-68
2021/06/06 07:51:08;;;;;;;14.32;9.88;;;;;;;17.73;100.00;101850.47;5056002;28;20036;-67
2021/06/06 07:53:36;;;;;;;17.85;11.07;;;;;;;18.65;100.00;101845.66;5057140;28;20110;-68
2021/06/06 07:56:04;;;;;;;17.35;11.07;;;;;;;17.75;100.00;101840.34;5058398;28;20375;-67
2021/06/06 07:58:38;;;;;;;19.10;11.07;;;;;;;18.26;100.00;101854.97;5056818;28;20044;-68
2021/06/06 08:01:09;;;;;;;17.27;9.82;;;;;;;17.72;100.00;101851.53;5061185;28;20045;-68
2021/06/06 08:03:36;;;;;;;20.00;11.50;;;;;;;17.53;100.00;101859.13;5060291;28;20048;-68
2021/06/06 08:06:06;;;;;;;17.92;10.85;;;;;;;18.66;100.00;101853.56;5058040;28;20063;-67
2021/06/06 08:08:33;;;;;;;15.45;10.43;;;;;;;19.15;100.00;101857.41;5057110;28;20125;-68
2021/06/06 08:11:03;;;;;;;18.48;11.98;;;;;;;19.73;100.00;101859.94;5062079;28;20068;-68
2021/06/06 08:13:30;;;;;;;15.32;11.35;;;;;;;19.50;100.00;101840.38;5061664;28;20045;-68
2021/06/06 08:15:59;;;;;;;20.35;11.70;;;;;;;18.93;100.00;101853.88;5058655;28;20037;-68
2021/06/06 08:18:30;;;;;;;14.38;10.60;;;;;;;19.41;100.00;101855.94;5057762;28;20068;-67
2021/06/06 08:20:59;;;;;;;15.82;11.70;;;;;;;18.67;100.00;101857.94;5065219;28;20036;-67
2021/06/06 08:23:27;;;;;;;18.80;11.63;;;;;;;19.64;100.00;101852.16;5054626;28;20095;-67
2021/06/06 08:25:55;;;;;;;18.02;12.38;;;;;;;19.06;100.00;101853.97;5075501;28;20366;-67
2021/06/06 08:28:23;;;;;;;17.85;12.07;;;;;;;18.80;100.00;101851.84;5057937;28;20063;-67
2021/06/06 08:30:52;;;;;;;17.98;12.60;;;;;;;19.38;100.00;101850.94;5062754;28;20045;-67
2021/06/06 08:33:25;;;;;;;17.25;11.73;;;;;;;19.83;100.00;101846.03;5063032;28;20387;-68
2021/06/06 08:35:55;;;;;;;17.00;11.23;;;;;;;20.13;100.00;101837.66;5059979;28;20490;-67
2021/06/06 08:38:23;;;;;;;16.80;11.55;;;;;;;19.47;100.00;101844.31;5057913;28;20045;-67
2021/06/06 08:40:54;;;;;;;20.30;12.90;;;;;;;21.48;100.00;101844.97;5060947;28;20341;-68
2021/06/06 08:43:23;;;;;;;14.43;9.82;;;;;;;21.98;100.00;101845.28;5056313;28;20059;-67
2021/06/06 08:45:57;;;;;;;16.60;10.32;;;;;;;19.07;100.00;101846.72;5055652;28;20037;-67
2021/06/06 08:48:29;;;;;;;17.65;11.07;;;;;;;20.21;100.00;101845.59;5057457;28;20043;-67
2021/06/06 08:51:02;;;;;;;14.30;10.02;;;;;;;20.37;100.00;101849.84;5058443;28;20048;-68
2021/06/06 08:53:33;;;;;;;19.58;11.82;;;;;;;19.47;100.00;101846.19;5056066;28;20048;-67
2021/06/06 08:56:15;;;;;;;15.50;9.63;;;;;;;19.71;100.00;101844.91;5059305;28;20040;-67
2021/06/06 08:58:46;;;;;;;16.13;10.55;;;;;;;20.03;100.00;101848.84;5055792;28;20175;-68
2021/06/06 09:01:20;;;;;;;14.38;9.50;;;;;;;19.78;100.00;101852.00;5056765;28;20499;-67
2021/06/06 09:03:50;;;;;;;12.63;8.95;;;;;;;19.76;100.00;101842.41;5055366;28;20083;-67
2021/06/06 09:06:22;;;;;;;16.40;8.55;;;;;;;20.71;100.00;101839.09;5062847;28;20432;-67
2021/06/06 09:08:50;;;;;;;13.35;8.80;;;;;;;20.56;100.00;101831.94;5059888;28;20044;-69
2021/06/06 09:11:18;;;;;;;14.50;10.32;;;;;;;18.79;100.00;101842.03;5056518;28;20436;-68
2021/06/06 09:13:45;;;;;;;14.55;10.13;;;;;;;20.11;100.00;101828.84;5063139;28;20071;-67
2021/06/06 09:16:16;;;;;;;13.20;9.18;;;;;;;21.41;100.00;101836.00;5058972;28;20063;-68
2021/06/06 09:18:46;;;;;;;13.38;7.72;;;;;;;23.03;100.00;101835.09;5058818;28;20060;-68
2021/06/06 09:21:19;;;;;;;10.15;7.63;;;;;;;20.90;100.00;101827.44;5062200;28;20049;-67
2021/06/06 09:23:48;;;;;;;11.00;7.97;;;;;;;23.16;100.00;101828.72;5058235;28;20330;-69
2021/06/06 09:26:24;;;;;;;11.02;7.00;;;;;;;23.96;100.00;101838.00;5062606;28;20075;-68
2021/06/06 09:29:06;;;;;;;12.30;8.77;;;;;;;21.69;100.00;101834.91;5058423;28;20032;-67
2021/06/06 09:31:33;;;;;;;14.27;8.90;;;;;;;20.83;100.00;101832.00;5057950;28;20048;-67
2021/06/06 09:34:03;;;;;;;12.75;8.30;;;;;;;22.08;100.00;101844.00;5061333;28;20080;-67
2021/06/06 09:36:35;;;;;;;15.68;8.30;;;;;;;23.04;100.00;101839.50;5053788;28;20044;-67
2021/06/06 09:39:10;;;;;;;13.80;8.35;;;;;;;23.49;100.00;101841.19;5061457;28;20037;-67
2021/06/06 09:41:40;;;;;;;12.65;7.78;;;;;;;22.10;100.00;101847.34;5055940;28;20044;-67
2021/06/06 09:44:17;;;;;;;12.98;8.65;;;;;;;21.15;100.00;101845.81;5059066;28;20302;-66
2021/06/06 09:46:46;;;;;;;11.57;7.70;;;;;;;21.77;100.00;101842.84;5055469;28;20551;-66
2021/06/06 09:49:25;;;;;;;12.25;8.40;;;;;;;22.01;100.00;101847.59;5061791;28;20114;-67
2021/06/06 09:51:56;;;;;;;10.88;7.97;;;;;;;21.73;100.00;101842.44;5054510;28;20048;-66
2021/06/06 09:54:31;;;;;;;12.90;9.02;;;;;;;20.53;100.00;101847.81;5060692;28;20048;-66
2021/06/06 09:57:00;;;;;;;12.55;9.15;;;;;;;21.70;100.00;101840.13;5057597;28;20048;-67
2021/06/06 09:59:30;;;;;;;17.50;11.02;;;;;;;21.22;100.00;101845.81;5063987;28;20399;-67
2021/06/06 10:02:01;;;;;;;11.57;9.05;;;;;;;19.43;100.00;101848.44;5060677;28;20386;-66
2021/06/06 10:04:30;;;;;;;13.40;8.68;;;;;;;21.14;100.00;101846.88;5059061;28;20103;-67
2021/06/06 10:07:13;;;;;;;13.20;8.52;;;;;;;23.01;100.00;101843.50;5059512;28;20448;-67
2021/06/06 10:09:41;;;;;;;13.00;8.13;;;;;;;21.67;100.00;101852.28;5060145;28;20045;-66
2021/06/06 10:12:12;;;;;;;11.75;8.02;;;;;;;20.45;100.00;101843.38;5052629;28;20049;-65
2021/06/06 10:14:45;;;;;;;11.48;7.45;;;;;;;21.09;100.00;101852.06;5054360;28;20048;-66
2021/06/06 10:17:15;;;;;;;9.45;5.47;;;;;;;21.73;100.00;101845.16;5056167;28;20356;-67
2021/06/06 10:19:51;;;;;;;11.90;6.53;;;;;;;22.07;100.00;101850.47;5056270;28;20052;-67
2021/06/06 10:22:22;;;;;;;7.25;5.53;;;;;;;23.02;100.00;101847.88;5060214;28;20098;-67
2021/06/06 10:24:57;;;;;;;8.23;5.07;;;;;;;22.67;100.00;101848.34;5058981;28;20041;-67
2021/06/06 10:27:28;;;;;;;9.25;6.40;;;;;;;24.40;100.00;101842.25;5055491;28;20067;-68
2021/06/06 10:30:00;;;;;;;9.68;5.60;;;;;;;23.38;100.00;101854.50;5059037;28;20040;-68
2021/06/06 10:32:30;;;;;;;7.40;5.30;;;;;;;21.47;100.00;101832.41;5057969;28;20437;-66
2021/06/06 10:35:03;;;;;;;8.40;5.22;;;;;;;22.08;100.00;101846.72;5055608;28;20098;-67
2021/06/06 10:37:32;;;;;;;8.68;5.38;;;;;;;21.62;100.00;101851.25;5063118;28;20040;-67
2021/06/06 10:40:04;;;;;;;9.35;5.88;;;;;;;21.34;100.00;101833.28;5058262;28;20041;-67
2021/06/06 10:42:36;;;;;;;10.65;6.70;;;;;;;20.71;100.00;101830.94;5057048;28;20067;-67
2021/06/06 10:45:08;;;;;;;9.32;7.88;;;;;;;20.85;100.00;101839.94;5056620;28;20126;-66
2021/06/06 10:47:43;;;;;;;10.18;7.10;;;;;;;21.40;100.00;101842.47;5056660;28;20032;-67
2021/06/06 10:50:29;;;;;;;10.20;6.25;;;;;;;22.24;100.00;101837.22;5054642;28;20058;-65
2021/06/06 10:53:08;;;;;;;8.02;4.82;;;;;;;20.91;98.76;101829.09;5058036;28;20044;-68
2021/06/06 10:55:49;;;;;;;9.13;6.68;;;;;;;21.18;100.00;101830.97;5053143;28;20044;-67
2021/06/06 10:58:19;;;;;;;11.45;7.35;;;;;;;22.78;100.00;101827.75;5055523;28;20045;-67
2021/06/06 11:00:56;;;;;;;11.95;7.60;;;;;;;23.20;100.00;101840.84;5058857;28;20044;-69
2021/06/06 11:03:26;;;;;;;10.23;6.93;;;;;;;23.41;100.00;101838.78;5057075;28;20510;-65
2021/06/06 11:05:57;;;;;;;10.88;7.97;;;;;;;24.02;100.00;101828.91;5062250;28;20040;-66
2021/06/06 11:08:52;;;;;;;8.75;6.30;;;;;;;23.86;100.00;101820.25;5056322;28;20040;-66
2021/06/06 11:11:24;;;;;;;10.10;7.63;;;;;;;23.13;100.00;101834.63;5042643;28;20057;-66
2021/06/06 11:13:54;;;;;;;10.98;7.28;;;;;;;22.68;100.00;101835.53;5059076;28;20041;-66
2021/06/06 11:16:33;;;;;;;9.32;6.10;;;;;;;23.80;100.00;101833.97;5056110;28;20040;-67